Pagrindinis puslapis
METAR-TAF:

METAR-TAF

Oro uostai :

Urfa, Turkija

platuma: 37-27N, ilguma: 38-54E, Aukštis: 823 m

Dabartinis oras

Ataskaita buvo paskelbta 25 minutes, ne 01:50 UTC
Vėjas 9 kt iš Šiaurės
Temperatūra 11°C
Drėgmė 37%
Slėgis 1021 hPa
Matomumas 10 km arba daugiau
nėra debesų žemiau 1500 m ir nėra kamuolinių lietaus debesų

METAR: LTCS 130150Z 35009KT CAVOK 11/M03 Q1021 RMK RWY22 VRB02KT

Laikas: 05:15 (02:15 UTC)

Prognozė

Ataskaita buvo paskelbta 3 valandos ir 35 minutes, ne 22:40 UTC
Prognozė galioja nuo 13 metu 00 UTC su 13 metu 24 UTC
Vėjas 7 kt iš Šiaurės
Matomumas 10 km arba daugiau
nėra debesų žemiau 1500 m ir nėra kamuolinių lietaus debesų

TAF: LTCS 122240Z 1300/1324 01007KT CAVOK

Orai ataskaitas ir orų prognozės (METAR, TAF).

turimą stotys yra geltonos ir raudonos taškus žemėlapyje.

Perkelti pele per norėdami pamatyti stoties vardą.

Tada spustelėkite, norėdami matyti oro stebėjimo ir prognozės.

Norėdami pakeisti žemėlapį: spustelėkite ant žalios mygtukų su juodo kryžiaus žemyn,; žalią mygtuką su brūkšneliu, jei norite nutolinti; arba žalių rodyklių gretimoms žemėlapius.


METAR-TAF: